Time;durP1;ratioP1;P1;durP2;ratioP2;P2;SDS_P1;SDS_P2;PMS_P1;PMS_P2;Temp;Humidity;BMP_temperature;BMP_pressure;BME280_temperature;BME280_humidity;BME280_pressure;Samples;Min_cycle;Max_cycle;Signal;HPM_P1;HPM_P2
2021/12/06 00:00:57;;;;;;;18.95;14.15;;;4.70;95.10;;;;;;2092544;28;20039;-91
2021/12/06 00:02:04;;;;;;;19.27;13.73;;;4.70;95.20;;;;;;2092777;28;20024;-92
2021/12/06 00:03:08;;;;;;;21.38;14.85;;;4.70;95.20;;;;;;2078053;28;20037;-91
2021/12/06 00:04:23;;;;;;;19.88;13.85;;;4.70;95.20;;;;;;2091180;28;20426;-91
2021/12/06 00:05:25;;;;;;;19.08;13.95;;;4.70;95.10;;;;;;2091013;28;20031;-92
2021/12/06 00:06:27;;;;;;;20.00;14.23;;;4.60;95.10;;;;;;2090643;28;20090;-90
2021/12/06 00:07:28;;;;;;;20.42;14.88;;;4.60;95.10;;;;;;2082258;28;20036;-91
2021/12/06 00:08:31;;;;;;;18.85;13.98;;;4.60;95.20;;;;;;2082298;28;20033;-92
2021/12/06 00:09:32;;;;;;;20.25;15.18;;;4.60;95.20;;;;;;2082937;28;20030;-91
2021/12/06 00:10:33;;;;;;;22.23;15.27;;;4.60;95.20;;;;;;2077903;28;20496;-91
2021/12/06 00:11:34;;;;;;;19.20;14.73;;;4.60;95.20;;;;;;2081720;28;20542;-92
2021/12/06 00:12:35;;;;;;;19.77;14.35;;;4.60;95.20;;;;;;2083100;28;20022;-91
2021/12/06 00:13:39;;;;;;;18.55;14.48;;;4.60;95.20;;;;;;2081677;28;20029;-92
2021/12/06 00:14:41;;;;;;;19.60;14.18;;;4.60;95.20;;;;;;2072786;28;20022;-85
2021/12/06 00:15:43;;;;;;;18.95;14.48;;;4.60;95.20;;;;;;2076394;28;20017;-91
2021/12/06 00:16:44;;;;;;;18.85;14.35;;;4.60;95.20;;;;;;2084604;28;20022;-84
2021/12/06 00:17:45;;;;;;;23.27;15.10;;;4.60;95.20;;;;;;2076686;28;20049;-89
2021/12/06 00:18:47;;;;;;;21.15;14.63;;;4.60;95.20;;;;;;2084560;28;20010;-88
2021/12/06 00:19:47;;;;;;;20.55;15.73;;;4.60;95.20;;;;;;2089499;28;20040;-90
2021/12/06 00:20:48;;;;;;;21.73;15.05;;;4.60;95.20;;;;;;2092074;28;20014;-90
2021/12/06 00:21:50;;;;;;;22.08;15.90;;;4.60;95.20;;;;;;2089396;28;20006;-91
2021/12/06 00:22:51;;;;;;;22.40;16.02;;;4.60;95.20;;;;;;2080699;28;20045;-92
2021/12/06 00:23:51;;;;;;;25.00;16.90;;;4.60;95.20;;;;;;2083583;28;20142;-92
2021/12/06 00:24:54;;;;;;;23.48;15.77;;;4.60;95.20;;;;;;2087089;28;20045;-92
2021/12/06 00:25:55;;;;;;;22.90;16.40;;;4.60;95.30;;;;;;2091381;28;20040;-91
2021/12/06 00:26:56;;;;;;;22.60;15.98;;;4.60;95.30;;;;;;2086278;28;20028;-92
2021/12/06 00:27:57;;;;;;;22.63;15.90;;;4.60;95.30;;;;;;2080214;28;20529;-91
2021/12/06 00:28:58;;;;;;;24.48;16.50;;;4.60;95.50;;;;;;2081791;28;20014;-91
2021/12/06 00:29:59;;;;;;;21.58;15.77;;;4.60;95.30;;;;;;2073012;28;20026;-92
2021/12/06 00:31:00;;;;;;;22.08;15.95;;;4.60;95.30;;;;;;2072506;28;20038;-92
2021/12/06 00:32:01;;;;;;;22.20;16.00;;;4.60;95.30;;;;;;2084178;28;20026;-91
2021/12/06 00:33:02;;;;;;;22.38;16.38;;;4.60;95.30;;;;;;2090434;28;20025;-90
2021/12/06 00:34:07;;;;;;;21.10;15.02;;;4.60;95.30;;;;;;2090398;28;20029;-90
2021/12/06 00:35:13;;;;;;;24.00;16.63;;;4.60;95.30;;;;;;2089348;28;20041;-91
2021/12/06 00:36:26;;;;;;;25.77;17.70;;;4.60;95.30;;;;;;2089586;28;20116;-92
2021/12/06 00:37:41;;;;;;;23.05;16.40;;;4.60;95.30;;;;;;2080618;28;20547;-91
2021/12/06 00:38:45;;;;;;;24.80;16.77;;;4.60;95.30;;;;;;2071360;28;20571;-91
2021/12/06 00:39:48;;;;;;;22.83;16.27;;;4.50;95.30;;;;;;2084243;28;20022;-92
2021/12/06 00:40:50;;;;;;;23.67;16.90;;;4.60;95.30;;;;;;2074206;28;20069;-91
2021/12/06 00:41:51;;;;;;;23.05;16.58;;;4.50;95.30;;;;;;2085040;28;20041;-91
2021/12/06 00:42:51;;;;;;;22.52;16.15;;;4.60;95.30;;;;;;2082015;28;20029;-91
2021/12/06 00:43:52;;;;;;;24.38;17.05;;;4.60;95.30;;;;;;2073957;28;20129;-91
2021/12/06 00:44:53;;;;;;;22.50;16.58;;;4.50;95.30;;;;;;2079617;28;20365;-91
2021/12/06 00:45:54;;;;;;;23.58;16.88;;;4.50;95.30;;;;;;2081164;28;20045;-91
2021/12/06 00:46:55;;;;;;;22.50;16.02;;;4.60;95.30;;;;;;2064991;28;20026;-92
2021/12/06 00:47:56;;;;;;;22.10;16.00;;;4.60;95.40;;;;;;2065916;28;20056;-93
2021/12/06 00:48:57;;;;;;;20.92;15.55;;;4.60;95.40;;;;;;2066061;28;20026;-92
2021/12/06 00:49:58;;;;;;;22.10;15.73;;;4.60;95.40;;;;;;2073577;28;20537;-92
2021/12/06 00:50:58;;;;;;;21.90;15.90;;;4.60;95.40;;;;;;2073633;28;20018;-93
2021/12/06 00:51:59;;;;;;;21.27;15.15;;;4.60;95.40;;;;;;2073968;28;20534;-92
2021/12/06 00:53:00;;;;;;;22.38;15.75;;;4.60;95.40;;;;;;2074807;28;20026;-92
2021/12/06 00:54:02;;;;;;;22.45;15.60;;;4.60;95.40;;;;;;2083033;28;20022;-91
2021/12/06 00:55:03;;;;;;;21.70;15.52;;;4.60;95.40;;;;;;2090097;28;20033;-92
2021/12/06 00:56:05;;;;;;;22.42;16.42;;;4.60;95.40;;;;;;2081672;28;20025;-91
2021/12/06 00:57:07;;;;;;;22.17;15.63;;;4.60;95.40;;;;;;2095262;28;20005;-90
2021/12/06 00:58:08;;;;;;;26.55;17.88;;;4.60;95.40;;;;;;2082698;28;20167;-90
2021/12/06 00:59:09;;;;;;;25.73;17.45;;;4.60;95.40;;;;;;2081704;28;20459;-92
2021/12/06 01:00:35;;;;;;;23.45;16.33;;;4.60;95.40;;;;;;2090230;28;20067;-92
2021/12/06 01:01:37;;;;;;;22.45;15.90;;;4.60;95.40;;;;;;2085969;28;20462;-92
2021/12/06 01:02:37;;;;;;;23.42;16.13;;;4.60;95.60;;;;;;2082009;28;20126;-92
2021/12/06 01:03:39;;;;;;;23.45;16.05;;;4.60;95.40;;;;;;2081611;28;20033;-92
2021/12/06 01:04:43;;;;;;;24.63;15.80;;;4.60;95.40;;;;;;2090391;28;20098;-92
2021/12/06 01:05:44;;;;;;;22.85;15.77;;;4.60;95.40;;;;;;2090157;28;20075;-91
2021/12/06 01:06:45;;;;;;;25.90;16.80;;;4.60;95.40;;;;;;2081417;28;20053;-91
2021/12/06 01:07:46;;;;;;;24.92;16.17;;;4.60;95.40;;;;;;2082298;28;20033;-91
2021/12/06 01:08:46;;;;;;;26.65;17.33;;;4.60;95.40;;;;;;2082624;28;20567;-91
2021/12/06 01:09:47;;;;;;;23.25;15.65;;;4.60;95.40;;;;;;2082264;28;20523;-91
2021/12/06 01:10:49;;;;;;;24.73;16.92;;;4.60;95.40;;;;;;2082557;28;20032;-91
2021/12/06 01:11:49;;;;;;;23.13;16.50;;;4.60;95.40;;;;;;2082917;28;20096;-92
2021/12/06 01:12:50;;;;;;;27.60;17.13;;;4.60;95.40;;;;;;2074591;28;20373;-92
2021/12/06 01:13:51;;;;;;;22.65;16.65;;;4.70;95.40;;;;;;2082955;28;20029;-92
2021/12/06 01:14:52;;;;;;;25.45;17.88;;;4.70;95.40;;;;;;2090935;28;20022;-93
2021/12/06 01:15:54;;;;;;;24.10;16.70;;;4.70;95.40;;;;;;2089640;28;20037;-92
2021/12/06 01:16:55;;;;;;;25.60;17.13;;;4.70;95.40;;;;;;2081326;28;20510;-92
2021/12/06 01:17:59;;;;;;;25.50;16.40;;;4.60;95.40;;;;;;2083188;28;20029;-91
2021/12/06 01:18:59;;;;;;;22.65;15.77;;;4.70;95.40;;;;;;2088711;28;20487;-91
2021/12/06 01:20:00;;;;;;;23.83;16.25;;;4.70;95.40;;;;;;2089917;28;20059;-92
2021/12/06 01:21:11;;;;;;;23.90;15.95;;;4.70;95.40;;;;;;2081024;28;20503;-91
2021/12/06 01:23:18;;;;;;;23.33;15.55;;;4.70;95.40;;;;;;2074029;28;19914;-91
2021/12/06 01:24:25;;;;;;;22.45;15.00;;;4.70;95.40;;;;;;2081947;28;20072;-92
2021/12/06 01:28:13;;;;;;;24.35;16.23;;;4.70;95.40;;;;;;2090364;28;20123;-91
2021/12/06 01:29:23;;;;;;;24.67;15.32;;;4.70;95.30;;;;;;2089437;28;20490;-92
2021/12/06 01:30:34;;;;;;;24.58;16.10;;;4.70;95.40;;;;;;2089997;28;20128;-91
2021/12/06 01:33:17;;;;;;;;;;;4.70;95.30;;;;;;2087074;28;20030;-91
2021/12/06 01:39:28;;;;;;;23.25;14.73;;;4.70;95.30;;;;;;2082123;28;20086;-92
2021/12/06 01:40:29;;;;;;;30.20;18.65;;;4.70;95.30;;;;;;2081740;28;20025;-92
2021/12/06 01:41:31;;;;;;;26.35;16.73;;;4.70;95.30;;;;;;2057363;28;20189;-92
2021/12/06 01:42:31;;;;;;;31.05;18.92;;;4.70;95.30;;;;;;2063030;28;20132;-91
2021/12/06 01:43:32;;;;;;;27.13;17.02;;;4.70;95.30;;;;;;2073495;28;20030;-90
2021/12/06 01:44:39;;;;;;;28.77;17.98;;;4.70;95.30;;;;;;2081599;28;20048;-92
2021/12/06 01:45:40;;;;;;;29.80;18.60;;;4.70;95.40;;;;;;2073566;28;20030;-92
2021/12/06 01:46:47;;;;;;;29.48;18.17;;;4.70;95.30;;;;;;2088058;28;20028;-90
2021/12/06 01:47:48;;;;;;;30.70;18.98;;;4.70;95.40;;;;;;2086553;28;20084;-92
2021/12/06 01:48:48;;;;;;;28.13;17.92;;;4.70;95.40;;;;;;2089634;28;20053;-92
2021/12/06 01:49:53;;;;;;;28.70;18.27;;;4.70;95.40;;;;;;2081639;28;20057;-92
2021/12/06 01:50:54;;;;;;;29.98;18.67;;;4.70;95.40;;;;;;2081840;28;20045;-92
2021/12/06 01:51:58;;;;;;;27.85;17.83;;;4.70;95.40;;;;;;2081107;28;20033;-93
2021/12/06 01:53:01;;;;;;;27.27;18.30;;;4.70;95.40;;;;;;2081794;28;20048;-92
2021/12/06 01:54:04;;;;;;;28.05;17.88;;;4.70;95.40;;;;;;2089563;28;20028;-92
2021/12/06 01:55:07;;;;;;;32.20;18.50;;;4.70;95.40;;;;;;2089701;28;20075;-92
2021/12/06 01:56:08;;;;;;;28.63;18.63;;;4.70;95.40;;;;;;2088604;28;20422;-92
2021/12/06 01:57:09;;;;;;;28.88;18.35;;;4.70;95.40;;;;;;2089448;28;20029;-92
2021/12/06 01:58:09;;;;;;;31.02;17.77;;;4.70;95.40;;;;;;2089001;28;20035;-91
2021/12/06 01:59:11;;;;;;;28.85;18.20;;;4.70;95.40;;;;;;2089650;28;20082;-93
2021/12/06 02:00:22;;;;;;;31.80;19.00;;;4.70;95.40;;;;;;2089898;28;20029;-92
2021/12/06 02:01:23;;;;;;;30.75;18.42;;;4.70;95.40;;;;;;2090792;28;20036;-92
2021/12/06 02:02:27;;;;;;;31.27;18.63;;;4.70;95.40;;;;;;2092131;28;20076;-93
2021/12/06 02:03:28;;;;;;;31.63;19.05;;;4.70;95.40;;;;;;2086815;28;20034;-93
2021/12/06 02:04:30;;;;;;;26.88;17.35;;;4.70;95.40;;;;;;2077882;28;20044;-92
2021/12/06 02:05:32;;;;;;;28.00;17.45;;;4.70;95.40;;;;;;2084894;28;20029;-92
2021/12/06 02:06:33;;;;;;;30.95;18.45;;;4.80;95.50;;;;;;2100043;28;20037;-91
2021/12/06 02:07:34;;;;;;;27.65;17.52;;;4.70;95.40;;;;;;2100166;28;20098;-90
2021/12/06 02:08:35;;;;;;;27.95;17.60;;;4.80;95.50;;;;;;2094632;28;20042;-85
2021/12/06 02:09:35;;;;;;;29.40;18.27;;;4.80;95.50;;;;;;2091593;28;20009;-90
2021/12/06 02:10:40;;;;;;;29.55;18.08;;;4.80;95.50;;;;;;2075756;28;20026;-87
2021/12/06 02:11:42;;;;;;;27.13;16.77;;;4.80;95.50;;;;;;2084990;28;20021;-88
2021/12/06 02:12:45;;;;;;;27.17;17.13;;;4.70;95.40;;;;;;2098696;28;20005;-93
2021/12/06 02:13:53;;;;;;;29.88;17.25;;;4.80;95.50;;;;;;2082260;28;20556;-94
2021/12/06 02:15:05;;;;;;;29.17;17.85;;;4.80;95.50;;;;;;2081525;28;20084;-93
2021/12/06 02:16:06;;;;;;;26.95;16.33;;;4.80;95.70;;;;;;2067631;28;20080;-92
2021/12/06 02:17:16;;;;;;;29.63;17.98;;;4.80;95.50;;;;;;2081207;28;20034;-92
2021/12/06 02:18:42;;;;;;;28.58;17.42;;;4.80;95.50;;;;;;2085056;28;20029;-92
2021/12/06 02:19:41;;;;;;;;;;;4.80;95.40;;;;;;2090249;28;20037;-92
2021/12/06 02:20:49;;;;;;;27.02;15.95;;;4.80;95.40;;;;;;2090462;28;19911;-92
2021/12/06 02:21:49;;;;;;;27.60;17.00;;;4.90;95.40;;;;;;2073411;28;20188;-92
2021/12/06 02:22:50;;;;;;;29.30;16.50;;;4.80;95.30;;;;;;2066831;28;20051;-92
2021/12/06 02:23:51;;;;;;;27.17;16.75;;;4.80;95.30;;;;;;2081296;28;20132;-93
2021/12/06 02:24:53;;;;;;;27.67;16.70;;;4.80;95.30;;;;;;2084816;28;20017;-93
2021/12/06 02:25:54;;;;;;;28.05;17.20;;;4.80;95.40;;;;;;2088003;28;20033;-93
2021/12/06 02:26:55;;;;;;;29.25;17.52;;;4.80;95.40;;;;;;2071498;28;20033;-93
2021/12/06 02:27:55;;;;;;;28.35;17.45;;;4.80;95.40;;;;;;2072905;28;20036;-93
2021/12/06 02:28:56;;;;;;;29.15;16.80;;;4.80;95.60;;;;;;2072672;28;20041;-93
2021/12/06 02:30:00;;;;;;;29.23;17.48;;;4.80;95.40;;;;;;2080460;28;20068;-92
2021/12/06 02:31:01;;;;;;;28.55;17.00;;;4.80;95.40;;;;;;2065456;28;20030;-92
2021/12/06 02:32:05;;;;;;;30.67;18.25;;;4.90;95.40;;;;;;2073282;28;20030;-92
2021/12/06 02:33:06;;;;;;;28.88;18.08;;;4.80;95.40;;;;;;2081369;28;20064;-92
2021/12/06 02:34:07;;;;;;;28.58;17.92;;;4.90;95.40;;;;;;2084388;28;20029;-92
2021/12/06 02:35:13;;;;;;;30.40;17.60;;;4.80;95.40;;;;;;2085826;28;20064;-93
2021/12/06 02:36:15;;;;;;;28.75;17.75;;;4.80;95.40;;;;;;2087034;28;20021;-92
2021/12/06 02:37:18;;;;;;;29.17;16.45;;;4.90;95.40;;;;;;2089407;28;20033;-93
2021/12/06 02:38:19;;;;;;;29.65;18.33;;;4.80;95.40;;;;;;2090031;28;20044;-92
2021/12/06 02:39:23;;;;;;;28.95;18.10;;;4.80;95.40;;;;;;2089102;28;20052;-92
2021/12/06 02:40:27;;;;;;;28.13;17.02;;;4.90;95.40;;;;;;2073341;28;20026;-93
2021/12/06 02:41:29;;;;;;;28.08;17.30;;;4.90;95.40;;;;;;2080650;28;20025;-92
2021/12/06 02:42:30;;;;;;;31.45;18.33;;;4.90;95.40;;;;;;2072564;28;20105;-93
2021/12/06 02:43:33;;;;;;;30.30;17.27;;;4.90;95.40;;;;;;2072980;28;20033;-92
2021/12/06 02:44:34;;;;;;;29.67;17.30;;;4.90;95.40;;;;;;2084402;28;20025;-92
2021/12/06 02:45:35;;;;;;;30.25;18.05;;;4.90;95.40;;;;;;2089710;28;20056;-92
2021/12/06 02:46:36;;;;;;;30.60;18.17;;;4.90;95.40;;;;;;2080883;28;20029;-92
2021/12/06 02:47:36;;;;;;;29.50;17.55;;;4.90;95.40;;;;;;2073007;28;20096;-92
2021/12/06 02:48:37;;;;;;;28.48;17.80;;;4.90;95.40;;;;;;2065082;28;20026;-93
2021/12/06 02:49:38;;;;;;;30.65;18.63;;;4.90;95.40;;;;;;2064820;28;20061;-93
2021/12/06 02:50:51;;;;;;;29.98;17.80;;;4.90;95.40;;;;;;2073001;28;20038;-93
2021/12/06 02:51:51;;;;;;;28.50;17.17;;;4.90;95.40;;;;;;2089544;28;20071;-93
2021/12/06 02:52:54;;;;;;;29.38;17.30;;;4.90;95.40;;;;;;2090152;28;20091;-92
2021/12/06 02:53:55;;;;;;;30.30;17.92;;;4.90;95.40;;;;;;2081417;28;20036;-92
2021/12/06 02:54:58;;;;;;;32.00;18.45;;;4.90;95.40;;;;;;2080551;28;20566;-92
2021/12/06 02:56:04;;;;;;;31.02;18.10;;;4.90;95.40;;;;;;2081251;28;20025;-92
2021/12/06 02:59:43;;;;;;;28.88;17.38;;;4.90;95.40;;;;;;2086988;28;20021;-92
2021/12/06 03:00:54;;;;;;;29.88;17.38;;;4.90;95.40;;;;;;2088557;28;20025;-93
2021/12/06 03:01:58;;;;;;;26.98;16.70;;;4.90;95.40;;;;;;2089297;28;20095;-93
2021/12/06 03:02:59;;;;;;;32.75;18.80;;;4.90;95.40;;;;;;2089466;28;20029;-92
2021/12/06 03:04:01;;;;;;;29.42;17.08;;;4.90;95.40;;;;;;2080759;28;20064;-93
2021/12/06 03:05:03;;;;;;;31.83;19.02;;;4.90;95.40;;;;;;2080908;28;20045;-92
2021/12/06 03:06:04;;;;;;;30.70;17.70;;;4.90;95.40;;;;;;2087432;28;20026;-92
2021/12/06 03:07:07;;;;;;;31.35;18.15;;;4.90;95.40;;;;;;2077263;28;20508;-92
2021/12/06 03:08:08;;;;;;;28.67;17.50;;;4.90;95.40;;;;;;2083165;28;20036;-92
2021/12/06 03:09:16;;;;;;;30.75;18.17;;;4.90;95.40;;;;;;2084326;28;20029;-92
2021/12/06 03:10:18;;;;;;;28.35;17.17;;;4.90;95.40;;;;;;2090825;28;20116;-92
2021/12/06 03:11:23;;;;;;;28.63;16.92;;;4.90;95.40;;;;;;2091216;28;20033;-93
2021/12/06 03:12:27;;;;;;;30.55;17.20;;;4.90;95.40;;;;;;2091249;28;20029;-92
2021/12/06 03:13:28;;;;;;;30.08;17.80;;;4.90;95.40;;;;;;2083390;28;20030;-92
2021/12/06 03:14:35;;;;;;;27.98;17.52;;;4.90;95.40;;;;;;2074320;28;20405;-92
2021/12/06 03:15:36;;;;;;;29.02;16.55;;;4.90;95.40;;;;;;2069426;28;20018;-93
2021/12/06 03:16:37;;;;;;;29.08;16.48;;;4.90;95.40;;;;;;2090754;28;20051;-92
2021/12/06 03:17:37;;;;;;;27.88;16.85;;;4.90;95.40;;;;;;2091114;28;20033;-92
2021/12/06 03:18:42;;;;;;;28.40;16.88;;;4.90;95.40;;;;;;2087614;28;20046;-90
2021/12/06 03:19:44;;;;;;;27.85;16.63;;;4.90;95.40;;;;;;2084892;28;20014;-89
2021/12/06 03:20:45;;;;;;;28.40;17.40;;;4.90;95.40;;;;;;2093086;28;20044;-86
2021/12/06 03:21:46;;;;;;;27.50;16.30;;;4.90;95.50;;;;;;2093268;28;20081;-88
2021/12/06 03:22:47;;;;;;;32.70;17.33;;;4.90;95.50;;;;;;2095862;28;20049;-92
2021/12/06 03:23:48;;;;;;;29.67;17.83;;;4.90;95.40;;;;;;2098420;28;20033;-92
2021/12/06 03:24:49;;;;;;;29.73;17.10;;;4.90;95.40;;;;;;2091082;28;20055;-92
2021/12/06 03:25:50;;;;;;;31.75;18.63;;;4.90;95.40;;;;;;2084125;28;20042;-92
2021/12/06 03:26:51;;;;;;;32.22;17.98;;;4.90;95.40;;;;;;2091049;28;20025;-92
2021/12/06 03:27:52;;;;;;;29.92;17.65;;;4.90;95.40;;;;;;2091801;28;20392;-93
2021/12/06 03:28:53;;;;;;;29.10;17.48;;;4.90;95.40;;;;;;2091319;28;20025;-92
2021/12/06 03:29:53;;;;;;;28.90;17.38;;;4.90;95.40;;;;;;2074146;28;20498;-92
2021/12/06 03:30:54;;;;;;;30.45;18.10;;;4.90;95.40;;;;;;2058651;28;20121;-92
2021/12/06 03:31:56;;;;;;;29.73;18.40;;;4.90;95.40;;;;;;2070059;28;20400;-93
2021/12/06 03:32:56;;;;;;;28.75;17.55;;;4.90;95.50;;;;;;2072778;28;20218;-92
2021/12/06 03:33:57;;;;;;;30.48;17.55;;;4.90;95.50;;;;;;2067097;28;20550;-91
2021/12/06 03:34:58;;;;;;;27.23;17.10;;;4.90;95.50;;;;;;2067069;28;20519;-93
2021/12/06 03:35:59;;;;;;;29.23;17.25;;;4.90;95.50;;;;;;2062614;28;20102;-94
2021/12/06 03:37:03;;;;;;;29.90;18.27;;;4.90;95.50;;;;;;2063269;28;20076;-93
2021/12/06 03:38:04;;;;;;;28.55;17.00;;;4.80;95.40;;;;;;2082720;28;20025;-92
2021/12/06 03:39:10;;;;;;;31.13;18.45;;;4.90;95.40;;;;;;2089955;28;20396;-93
2021/12/06 03:40:11;;;;;;;33.58;19.55;;;4.90;95.40;;;;;;2082013;28;20063;-92
2021/12/06 03:41:14;;;;;;;31.83;18.70;;;4.80;95.40;;;;;;2080467;28;20488;-92
2021/12/06 03:42:18;;;;;;;38.60;21.42;;;4.80;95.40;;;;;;2082697;28;20030;-92
2021/12/06 03:43:19;;;;;;;33.95;19.95;;;4.80;95.40;;;;;;2075420;28;20032;-92
2021/12/06 03:44:20;;;;;;;34.45;19.45;;;4.80;95.40;;;;;;2065967;28;20429;-92
2021/12/06 03:45:21;;;;;;;37.70;21.10;;;4.80;95.40;;;;;;2074305;28;20397;-92
2021/12/06 03:46:23;;;;;;;37.17;20.90;;;4.80;95.40;;;;;;2087584;28;20056;-93
2021/12/06 03:47:27;;;;;;;35.30;20.98;;;4.80;95.70;;;;;;2074358;28;20026;-93
2021/12/06 03:48:29;;;;;;;33.92;19.58;;;4.80;95.50;;;;;;2082535;28;20446;-92
2021/12/06 03:49:30;;;;;;;34.42;19.10;;;4.80;95.50;;;;;;2090976;28;20148;-93
2021/12/06 03:50:31;;;;;;;33.25;18.88;;;4.80;95.50;;;;;;2089882;28;20570;-92
2021/12/06 03:51:31;;;;;;;32.80;19.80;;;4.80;95.50;;;;;;2089349;28;20104;-91
2021/12/06 03:52:32;;;;;;;33.72;20.17;;;4.80;95.50;;;;;;2090611;28;20542;-91
2021/12/06 03:53:34;;;;;;;32.42;19.55;;;4.80;95.50;;;;;;2088457;28;20479;-92
2021/12/06 03:54:35;;;;;;;36.38;19.25;;;4.80;95.50;;;;;;2079609;28;20029;-92
2021/12/06 03:55:36;;;;;;;31.23;18.60;;;4.80;95.50;;;;;;2089015;28;20037;-91
2021/12/06 03:56:39;;;;;;;31.60;19.35;;;4.80;95.50;;;;;;2096973;28;20049;-90
2021/12/06 03:57:40;;;;;;;32.35;18.50;;;4.80;95.50;;;;;;2101206;28;20072;-85
2021/12/06 03:58:41;;;;;;;31.85;18.42;;;4.80;95.50;;;;;;2092468;28;20018;-89
2021/12/06 03:59:42;;;;;;;32.25;19.10;;;4.80;95.50;;;;;;2092619;28;20056;-83
2021/12/06 04:00:42;;;;;;;32.38;18.77;;;4.80;95.50;;;;;;2100357;28;20051;-83
2021/12/06 04:01:45;;;;;;;31.58;18.30;;;4.80;95.50;;;;;;2100779;28;20017;-86
2021/12/06 04:02:46;;;;;;;33.63;19.58;;;4.80;95.50;;;;;;2100574;28;20039;-84
2021/12/06 04:03:47;;;;;;;32.88;19.40;;;4.80;95.70;;;;;;2096703;28;20033;-92
2021/12/06 04:04:48;;;;;;;32.88;19.30;;;4.80;95.40;;;;;;2091617;28;20032;-92
2021/12/06 04:05:49;;;;;;;33.10;19.20;;;4.80;95.40;;;;;;2091144;28;20028;-91
2021/12/06 04:06:50;;;;;;;37.13;20.10;;;4.80;95.40;;;;;;2090747;28;20525;-91
2021/12/06 04:07:51;;;;;;;36.90;20.48;;;4.80;95.40;;;;;;2090476;28;20063;-91
2021/12/06 04:08:52;;;;;;;36.40;20.48;;;4.80;95.40;;;;;;2091063;28;20032;-93
2021/12/06 04:09:52;;;;;;;34.33;20.15;;;4.80;95.40;;;;;;2091180;28;20056;-91
2021/12/06 04:10:55;;;;;;;33.72;19.50;;;4.80;95.40;;;;;;2081869;28;20458;-93
2021/12/06 04:11:56;;;;;;;35.42;20.48;;;4.80;95.40;;;;;;2071047;28;20026;-92
2021/12/06 04:12:58;;;;;;;35.30;20.88;;;4.80;95.40;;;;;;2090161;28;20032;-92
2021/12/06 04:13:59;;;;;;;36.50;20.45;;;4.80;95.40;;;;;;2081906;28;20056;-93
2021/12/06 04:15:00;;;;;;;36.75;20.08;;;4.80;95.40;;;;;;2073505;28;20030;-91
2021/12/06 04:16:01;;;;;;;37.17;21.30;;;4.70;95.70;;;;;;2081518;28;20435;-93
2021/12/06 04:17:03;;;;;;;37.58;20.58;;;4.70;95.40;;;;;;2089800;28;20529;-92
2021/12/06 04:18:03;;;;;;;37.05;21.27;;;4.70;95.40;;;;;;2091210;28;20079;-91
2021/12/06 04:19:05;;;;;;;34.90;19.42;;;4.80;95.40;;;;;;2091145;28;20609;-91
2021/12/06 04:20:08;;;;;;;36.72;21.40;;;4.70;95.40;;;;;;2090841;28;20032;-92
2021/12/06 04:21:09;;;;;;;37.85;20.48;;;4.70;95.40;;;;;;2091075;28;20052;-91
2021/12/06 04:22:12;;;;;;;37.85;21.25;;;4.70;95.40;;;;;;2089045;28;20029;-92
2021/12/06 04:23:13;;;;;;;38.83;21.45;;;4.70;95.40;;;;;;2066258;28;20046;-93
2021/12/06 04:24:14;;;;;;;38.13;21.13;;;4.70;95.40;;;;;;2073921;28;20148;-91
2021/12/06 04:25:17;;;;;;;39.80;21.30;;;4.70;95.40;;;;;;2082125;28;20435;-92
2021/12/06 04:26:18;;;;;;;39.63;22.52;;;4.70;95.40;;;;;;2074122;28;20038;-92
2021/12/06 04:27:21;;;;;;;39.65;21.45;;;4.70;95.40;;;;;;2076227;28;20022;-92
2021/12/06 04:28:22;;;;;;;38.97;21.10;;;4.70;95.40;;;;;;2067340;28;20046;-92
2021/12/06 04:29:23;;;;;;;36.33;20.23;;;4.70;95.40;;;;;;2066709;28;20056;-91
2021/12/06 04:30:25;;;;;;;39.20;21.45;;;4.70;95.40;;;;;;2065940;28;20042;-92
2021/12/06 04:31:28;;;;;;;34.47;19.55;;;4.70;95.50;;;;;;2071941;28;20006;-92
2021/12/06 04:32:29;;;;;;;35.25;20.38;;;4.70;95.50;;;;;;2074202;28;20101;-91
2021/12/06 04:33:31;;;;;;;34.72;19.70;;;4.70;95.50;;;;;;2082086;28;20034;-91
2021/12/06 04:34:32;;;;;;;38.03;20.65;;;4.70;95.50;;;;;;2073776;28;20069;-91
2021/12/06 04:35:34;;;;;;;34.10;19.67;;;4.70;95.50;;;;;;2065862;28;20054;-92
2021/12/06 04:36:36;;;;;;;32.50;19.20;;;4.70;95.50;;;;;;2074479;28;20080;-91
2021/12/06 04:37:37;;;;;;;32.95;18.73;;;4.70;95.50;;;;;;2069657;28;20026;-92
2021/12/06 04:38:38;;;;;;;34.95;19.80;;;4.70;95.50;;;;;;2070817;28;20029;-92
2021/12/06 04:39:40;;;;;;;34.15;19.10;;;4.80;95.50;;;;;;2068870;28;20034;-93
2021/12/06 04:40:41;;;;;;;35.30;20.40;;;4.80;95.50;;;;;;2073119;28;20030;-92
2021/12/06 04:41:42;;;;;;;34.63;20.05;;;4.70;95.40;;;;;;2073382;28;20022;-92
2021/12/06 04:42:44;;;;;;;37.80;19.90;;;4.80;95.50;;;;;;2073473;28;20045;-92
2021/12/06 04:43:44;;;;;;;34.25;19.45;;;4.70;95.40;;;;;;2083149;28;20097;-92
2021/12/06 04:44:45;;;;;;;36.35;19.63;;;4.70;95.40;;;;;;2082359;28;20025;-92
2021/12/06 04:45:46;;;;;;;35.92;20.17;;;4.70;95.40;;;;;;2083448;28;20024;-91
2021/12/06 04:46:47;;;;;;;36.40;20.20;;;4.70;95.40;;;;;;2067107;28;20034;-91
2021/12/06 04:47:49;;;;;;;36.20;19.90;;;4.70;95.40;;;;;;2067213;28;20074;-92
2021/12/06 04:48:50;;;;;;;38.97;19.95;;;4.70;95.40;;;;;;2083517;28;20026;-94
2021/12/06 04:49:50;;;;;;;33.67;19.30;;;4.70;95.40;;;;;;2074256;28;20030;-93
2021/12/06 04:50:51;;;;;;;35.15;20.65;;;4.70;95.40;;;;;;2076856;28;20022;-92
2021/12/06 04:51:53;;;;;;;34.55;19.23;;;4.70;95.40;;;;;;2073617;28;20030;-91
2021/12/06 04:52:56;;;;;;;34.85;19.27;;;4.70;95.40;;;;;;2049591;28;20034;-92
2021/12/06 04:53:57;;;;;;;36.78;20.17;;;4.70;95.40;;;;;;2048751;28;20505;-92
2021/12/06 04:55:00;;;;;;;35.00;19.02;;;4.70;95.40;;;;;;2050226;28;20035;-92
2021/12/06 04:56:11;;;;;;;35.22;19.33;;;4.70;95.40;;;;;;2066321;28;20492;-92
2021/12/06 04:57:21;;;;;;;35.28;19.52;;;4.70;95.40;;;;;;2073869;28;20483;-91
2021/12/06 04:58:29;;;;;;;33.25;18.55;;;4.70;95.50;;;;;;2066898;28;20030;-92
2021/12/06 04:59:36;;;;;;;33.25;18.35;;;4.70;95.50;;;;;;2066229;28;20038;-92
2021/12/06 05:00:46;;;;;;;33.90;18.90;;;4.70;95.50;;;;;;2066552;28;20108;-92
2021/12/06 05:01:51;;;;;;;34.83;18.80;;;4.70;95.50;;;;;;2066959;28;20045;-92
2021/12/06 05:02:52;;;;;;;33.35;18.67;;;4.70;95.50;;;;;;2069583;28;20050;-93
2021/12/06 05:03:53;;;;;;;32.78;19.27;;;4.60;95.40;;;;;;2073021;28;20081;-91
2021/12/06 05:04:58;;;;;;;35.80;19.45;;;4.70;95.50;;;;;;2073292;28;20068;-92
2021/12/06 05:06:03;;;;;;;34.33;19.15;;;4.60;95.40;;;;;;2070914;28;20518;-92
2021/12/06 05:07:08;;;;;;;32.50;18.17;;;4.60;95.40;;;;;;2065700;28;20419;-92
2021/12/06 05:08:22;;;;;;;34.03;19.50;;;4.60;95.50;;;;;;2066307;28;20031;-92
2021/12/06 05:09:31;;;;;;;35.47;19.70;;;4.60;95.50;;;;;;2065604;28;20498;-92
2021/12/06 05:10:32;;;;;;;35.35;19.95;;;4.60;95.50;;;;;;2058971;28;20023;-92
2021/12/06 05:11:32;;;;;;;38.17;19.95;;;4.60;95.50;;;;;;2073706;28;20025;-92
2021/12/06 05:12:33;;;;;;;40.13;20.42;;;4.50;95.40;;;;;;2065301;28;20038;-91
2021/12/06 05:13:37;;;;;;;37.58;20.95;;;4.50;95.40;;;;;;2065522;28;20173;-91
2021/12/06 05:14:39;;;;;;;37.92;21.30;;;4.50;95.50;;;;;;2074003;28;20038;-92
2021/12/06 05:15:40;;;;;;;37.53;20.67;;;4.50;95.50;;;;;;2081745;28;20042;-92
2021/12/06 05:16:41;;;;;;;39.13;21.42;;;4.50;95.50;;;;;;2073449;28;20573;-92
2021/12/06 05:17:44;;;;;;;37.80;21.30;;;4.50;95.50;;;;;;2065849;28;20034;-93
2021/12/06 05:18:45;;;;;;;37.35;20.13;;;4.50;95.50;;;;;;2073922;28;20026;-92
2021/12/06 05:19:46;;;;;;;39.25;20.70;;;4.50;95.50;;;;;;2073932;28;20033;-92
2021/12/06 05:20:48;;;;;;;40.58;21.08;;;4.50;95.50;;;;;;2064377;28;20034;-92
2021/12/06 05:21:49;;;;;;;39.25;21.90;;;4.50;95.50;;;;;;2065109;28;20101;-92
2021/12/06 05:22:50;;;;;;;38.75;21.90;;;4.40;95.50;;;;;;2070601;28;20061;-92
2021/12/06 05:23:50;;;;;;;41.05;23.30;;;4.40;95.50;;;;;;2076190;28;20445;-92
2021/12/06 05:24:52;;;;;;;38.97;21.67;;;4.40;95.60;;;;;;2073688;28;20041;-92
2021/12/06 05:25:53;;;;;;;40.03;21.85;;;4.40;95.60;;;;;;2065810;28;20050;-91
2021/12/06 05:26:54;;;;;;;43.00;22.17;;;4.40;95.60;;;;;;2065323;28;20505;-92
2021/12/06 05:27:58;;;;;;;39.65;21.63;;;4.40;95.60;;;;;;2073712;28;20034;-92
2021/12/06 05:29:01;;;;;;;40.80;21.85;;;4.40;95.60;;;;;;2081711;28;20487;-91
2021/12/06 05:30:04;;;;;;;38.63;21.92;;;4.30;95.60;;;;;;2081716;28;20048;-91
2021/12/06 05:31:13;;;;;;;38.92;21.35;;;4.40;95.60;;;;;;2088945;28;20025;-92
2021/12/06 05:32:13;;;;;;;34.97;19.65;;;4.30;95.60;;;;;;2081673;28;20037;-92
2021/12/06 05:33:28;;;;;;;36.45;20.95;;;4.30;95.60;;;;;;2082790;28;20408;-92
2021/12/06 05:34:39;;;;;;;36.25;19.58;;;4.30;95.60;;;;;;2081544;28;20034;-91
2021/12/06 05:35:39;;;;;;;36.88;19.38;;;4.30;95.60;;;;;;2076844;28;20064;-91